Portada
METAR-TAF:

METAR-TAF

Aeroports :

Bagdad, Iraq

latitud: 33-15-45N, longitud: 44-14-04E, altitud: 35 m

Observació

L'informe es va fer fa 27 minuts, a les 02:00 UTC
Vent 3 kt del Nord-Est, variant entre Nord i Est
Temperatura 26°C
Humitat 61%
Pressió 1009 hPa
Visibilitat 10 km o més
Cel ennuvolat a una alçada de 3000 ft

METAR: ORBI 300200Z 05003KT 360V090 9999 BKN030 26/18 Q1009 NOSIG

Hora: 05:27 (02:27 UTC)

Pronòstic

L'informe es va fer fa 4 hores i 27 minuts, a les 22:00 UTC
Pronòstic vàlid del 30 a les 00 UTC al 30 a les 24 UTC
Vent 13 kt del Oest/Nord-Oest
Visibilitat: 7000 m
Núvols disperses a una alçada de 3000 ft
Cel ennuvolat a una alçada de 8000 ft
Temporalment
l' 30 a les 00 UTC al a les UTC
Visibilitat: 3002 m
Escasses núvols a una alçada de 2500 ft, Cumulonimbus.

TAF: ORBI 292200Z 3000/3024 30013KT 7000 SCT030 BKN080 TEMPO 3000/ 3002 TS-RA FEW025CB

Observacions i pronòstics meteorològics de més de 4000 aeroports (METAR i TAF).

Les estacions disponibles són els punts grocs i vermells al mapa.

Posi el ratolí al punt desitjat per veure el nom de l'estació.

Feu clic per veure les observacions i els pronòstics meteorològics.

Per canviar el mapa: feu clic els botons verds amb una creu de color negre per apropar; al botó verd amb un guió per allunyar la imatge; o en les fletxes verdes per a mapes adjacents.


METAR-TAF: